createdAt,value
2023-03-28T00:01:01.599Z,2.47
2023-03-28T00:03:29.471Z,2.60
2023-03-28T00:05:57.932Z,2.50
2023-03-28T00:08:24.575Z,3.17
2023-03-28T00:10:51.143Z,2.67
2023-03-28T00:13:19.961Z,2.43
2023-03-28T00:15:46.888Z,2.57
2023-03-28T00:18:13.378Z,2.33
2023-03-28T00:20:45.243Z,2.63
2023-03-28T00:23:12.539Z,2.67
2023-03-28T00:25:41.627Z,2.90
2023-03-28T00:28:08.146Z,3.00
2023-03-28T00:30:34.654Z,2.67
2023-03-28T00:33:01.156Z,2.77
2023-03-28T00:35:27.573Z,2.87
2023-03-28T00:37:58.408Z,3.00
2023-03-28T00:40:26.036Z,2.80
2023-03-28T00:42:53.084Z,2.70
2023-03-28T00:45:21.595Z,2.43
2023-03-28T00:47:58.878Z,2.70
2023-03-28T00:50:30.627Z,2.90
2023-03-28T00:53:04.625Z,2.67
2023-03-28T00:55:46.693Z,2.87
2023-03-28T00:58:17.816Z,2.40
2023-03-28T01:00:47.528Z,2.40
2023-03-28T01:03:15.997Z,2.60
2023-03-28T01:05:44.097Z,2.30
2023-03-28T01:08:23.446Z,2.53
2023-03-28T01:10:50.559Z,2.70
2023-03-28T01:13:21.932Z,2.47
2023-03-28T01:15:51.906Z,2.63
2023-03-28T01:18:22.993Z,2.70
2023-03-28T01:21:08.343Z,2.27
2023-03-28T01:24:10.934Z,2.80
2023-03-28T01:26:50.899Z,2.90
2023-03-28T01:29:29.438Z,2.27
2023-03-28T01:32:01.845Z,1.90
2023-03-28T01:34:51.676Z,2.67
2023-03-28T01:37:25.956Z,2.57
2023-03-28T01:40:13.453Z,3.00
2023-03-28T01:42:55.190Z,2.80
2023-03-28T01:45:44.999Z,2.67
2023-03-28T01:48:14.244Z,2.90
2023-03-28T01:50:49.596Z,2.87
2023-03-28T01:53:30.435Z,2.30
2023-03-28T01:56:11.105Z,2.77
2023-03-28T01:58:50.039Z,3.23
2023-03-28T02:01:27.200Z,2.53
2023-03-28T02:04:00.954Z,3.13
2023-03-28T02:06:30.442Z,2.80
2023-03-28T02:08:57.521Z,2.60
2023-03-28T02:11:27.310Z,2.27
2023-03-28T02:14:09.782Z,3.17
2023-03-28T02:16:41.205Z,2.83
2023-03-28T02:19:09.363Z,3.33
2023-03-28T02:21:45.578Z,3.73
2023-03-28T02:24:12.551Z,3.10
2023-03-28T02:26:39.708Z,3.40
2023-03-28T02:29:08.967Z,3.37
2023-03-28T02:31:36.756Z,2.90
2023-03-28T02:34:03.454Z,3.00
2023-03-28T02:36:45.889Z,3.33
2023-03-28T02:39:38.965Z,3.30
2023-03-28T02:42:26.607Z,2.73
2023-03-28T02:45:17.702Z,2.80
2023-03-28T02:48:14.239Z,2.97
2023-03-28T02:50:57.478Z,3.37
2023-03-28T02:53:32.861Z,3.63
2023-03-28T02:56:11.822Z,3.10
2023-03-28T02:58:46.321Z,2.87
2023-03-28T03:01:14.589Z,4.03
2023-03-28T03:03:42.240Z,3.50
2023-03-28T03:06:09.244Z,3.77
2023-03-28T03:08:36.089Z,3.50
2023-03-28T03:11:02.450Z,3.37
2023-03-28T03:13:28.873Z,3.00
2023-03-28T03:15:56.093Z,3.00
2023-03-28T03:18:23.242Z,3.27
2023-03-28T03:20:50.223Z,3.53
2023-03-28T03:23:16.747Z,3.87
2023-03-28T03:25:43.384Z,3.13
2023-03-28T03:28:10.778Z,3.47
2023-03-28T03:30:37.135Z,3.37
2023-03-28T03:33:05.434Z,3.30
2023-03-28T03:35:33.396Z,3.43
2023-03-28T03:38:00.786Z,3.43
2023-03-28T03:40:27.319Z,3.60
2023-03-28T03:42:53.788Z,3.17
2023-03-28T03:45:20.220Z,3.97
2023-03-28T03:47:46.695Z,3.90
2023-03-28T03:50:13.672Z,3.70
2023-03-28T03:52:40.133Z,3.37
2023-03-28T03:55:07.482Z,3.30
2023-03-28T03:57:34.080Z,3.90
2023-03-28T04:00:01.947Z,3.50
2023-03-28T04:02:28.539Z,3.80
2023-03-28T04:04:57.171Z,3.50
2023-03-28T04:07:23.512Z,3.27
2023-03-28T04:09:49.867Z,3.90
2023-03-28T04:12:16.629Z,3.70
2023-03-28T04:14:42.959Z,3.23
2023-03-28T04:17:10.017Z,2.97
2023-03-28T04:19:40.601Z,3.40
2023-03-28T04:22:08.119Z,3.67
2023-03-28T04:24:37.103Z,2.90
2023-03-28T04:27:03.557Z,3.00
2023-03-28T04:29:32.818Z,3.57
2023-03-28T04:31:59.541Z,4.13
2023-03-28T04:34:30.065Z,3.20
2023-03-28T04:37:01.695Z,4.27
2023-03-28T04:39:33.701Z,3.50
2023-03-28T04:42:01.975Z,3.30
2023-03-28T04:44:29.400Z,3.40
2023-03-28T04:46:56.455Z,3.27
2023-03-28T04:49:23.123Z,3.73
2023-03-28T04:51:50.707Z,3.53
2023-03-28T04:54:17.711Z,3.23
2023-03-28T04:56:45.612Z,3.27
2023-03-28T04:59:12.508Z,3.03
2023-03-28T05:01:38.928Z,3.40
2023-03-28T05:04:05.506Z,3.57
2023-03-28T05:06:32.194Z,3.53
2023-03-28T05:08:58.656Z,4.27
2023-03-28T05:11:25.171Z,3.77
2023-03-28T05:13:51.948Z,3.77
2023-03-28T05:16:18.365Z,4.33
2023-03-28T05:18:44.782Z,4.83
2023-03-28T05:21:11.190Z,3.83
2023-03-28T05:23:37.570Z,3.43
2023-03-28T05:26:04.073Z,5.77
2023-03-28T05:28:31.359Z,6.25
2023-03-28T05:30:57.979Z,7.07
2023-03-28T05:33:25.560Z,5.50
2023-03-28T05:35:53.570Z,4.87
2023-03-28T05:38:19.948Z,3.97
2023-03-28T05:40:46.989Z,4.23
2023-03-28T05:43:13.425Z,4.10
2023-03-28T05:45:40.134Z,4.40
2023-03-28T05:48:06.542Z,3.33
2023-03-28T05:50:32.866Z,3.50
2023-03-28T05:52:59.171Z,3.27
2023-03-28T05:55:25.474Z,3.83
2023-03-28T05:57:51.986Z,3.77
2023-03-28T06:00:19.350Z,3.40
2023-03-28T06:02:46.640Z,3.73
2023-03-28T06:05:13.705Z,4.00
2023-03-28T06:07:42.857Z,3.80
2023-03-28T06:10:12.192Z,3.80
2023-03-28T06:12:38.869Z,4.43
2023-03-28T06:15:06.142Z,4.13
2023-03-28T06:17:32.585Z,3.93
2023-03-28T06:19:59.060Z,3.90
2023-03-28T06:22:26.539Z,4.03
2023-03-28T06:24:53.059Z,4.03
2023-03-28T06:27:19.440Z,3.70
2023-03-28T06:29:45.920Z,3.70
2023-03-28T06:32:12.644Z,3.87
2023-03-28T06:34:38.990Z,3.63
2023-03-28T06:37:05.515Z,3.40
2023-03-28T06:39:32.033Z,3.97
2023-03-28T06:41:59.686Z,5.60
2023-03-28T06:44:26.102Z,5.97
2023-03-28T06:46:52.502Z,4.30
2023-03-28T06:49:19.002Z,4.80
2023-03-28T06:51:45.596Z,5.43
2023-03-28T06:54:12.017Z,4.80
2023-03-28T06:56:38.365Z,4.00
2023-03-28T06:59:04.874Z,5.40
2023-03-28T07:01:31.264Z,6.87
2023-03-28T07:03:59.524Z,4.10
2023-03-28T07:06:27.660Z,4.03
2023-03-28T07:08:56.198Z,3.50
2023-03-28T07:11:22.787Z,3.33
2023-03-28T07:13:49.332Z,3.50
2023-03-28T07:16:16.609Z,3.27
2023-03-28T07:18:43.774Z,3.67
2023-03-28T07:21:12.996Z,3.20
2023-03-28T07:23:40.368Z,3.67
2023-03-28T07:26:11.049Z,3.57
2023-03-28T07:28:37.750Z,3.27
2023-03-28T07:31:05.386Z,4.53
2023-03-28T07:33:37.126Z,7.10
2023-03-28T07:36:14.087Z,4.90
2023-03-28T07:38:40.696Z,3.50
2023-03-28T07:41:07.969Z,3.27
2023-03-28T07:43:34.852Z,3.90
2023-03-28T07:46:06.699Z,3.43
2023-03-28T07:48:35.406Z,3.63
2023-03-28T07:51:02.933Z,3.60
2023-03-28T07:53:29.581Z,3.30
2023-03-28T07:55:56.342Z,3.67
2023-03-28T07:58:23.128Z,3.43
2023-03-28T08:00:49.886Z,4.00
2023-03-28T08:03:17.423Z,3.87
2023-03-28T08:05:51.637Z,3.67
2023-03-28T08:08:19.849Z,3.43
2023-03-28T08:10:50.872Z,3.67
2023-03-28T08:13:18.351Z,3.37
2023-03-28T08:15:44.823Z,3.43
2023-03-28T08:18:12.922Z,3.50
2023-03-28T08:20:39.253Z,3.77
2023-03-28T08:23:07.315Z,3.60
2023-03-28T08:25:33.619Z,3.53
2023-03-28T08:28:00.204Z,3.43
2023-03-28T08:30:26.850Z,3.73
2023-03-28T08:32:53.420Z,3.80
2023-03-28T08:35:19.901Z,4.07
2023-03-28T08:37:46.532Z,3.33
2023-03-28T08:40:17.519Z,3.50
2023-03-28T08:42:56.186Z,3.53
2023-03-28T08:46:01.708Z,3.70
2023-03-28T08:48:37.896Z,3.40
2023-03-28T08:51:13.573Z,4.10
2023-03-28T08:53:44.651Z,3.47
2023-03-28T08:56:15.468Z,3.57
2023-03-28T08:59:03.827Z,3.13
2023-03-28T09:01:32.737Z,3.67
2023-03-28T09:04:00.778Z,3.33
2023-03-28T09:06:45.278Z,2.53
2023-03-28T09:09:38.499Z,2.40
2023-03-28T09:12:41.602Z,2.03
2023-03-28T09:15:27.695Z,2.73
2023-03-28T09:18:23.859Z,3.13
2023-03-28T09:21:31.928Z,2.23
2023-03-28T09:24:17.787Z,2.57
2023-03-28T09:26:52.241Z,2.63
2023-03-28T09:29:24.552Z,2.73
2023-03-28T09:31:58.094Z,2.37
2023-03-28T09:34:30.638Z,2.30
2023-03-28T09:37:02.831Z,2.00
2023-03-28T09:39:37.238Z,2.80
2023-03-28T09:42:16.146Z,2.10
2023-03-28T09:44:58.349Z,2.37
2023-03-28T09:47:24.893Z,2.20
2023-03-28T09:50:02.299Z,2.37
2023-03-28T09:52:36.662Z,2.53
2023-03-28T09:55:03.177Z,2.50
2023-03-28T09:58:06.625Z,2.47
2023-03-28T10:00:46.258Z,2.73
2023-03-28T10:03:32.369Z,2.43
2023-03-28T10:06:00.491Z,2.33
2023-03-28T10:08:28.752Z,2.07
2023-03-28T10:11:12.189Z,2.23
2023-03-28T10:13:45.670Z,1.97
2023-03-28T10:16:15.322Z,2.13
2023-03-28T10:18:43.066Z,2.70
2023-03-28T10:21:14.493Z,2.30
2023-03-28T10:24:02.219Z,2.30
2023-03-28T10:26:29.574Z,1.83
2023-03-28T10:29:02.317Z,1.73
2023-03-28T10:31:32.793Z,1.50
2023-03-28T10:34:00.981Z,1.50
2023-03-28T10:36:40.549Z,1.00
2023-03-28T10:39:22.081Z,1.53
2023-03-28T10:41:56.775Z,1.20
2023-03-28T10:44:41.041Z,1.10
2023-03-28T10:47:14.654Z,1.50
2023-03-28T10:49:47.231Z,1.67
2023-03-28T10:52:35.716Z,1.80
2023-03-28T10:55:05.263Z,1.70
2023-03-28T10:57:46.360Z,1.73
2023-03-28T11:00:23.505Z,2.10
2023-03-28T11:03:12.005Z,1.90
2023-03-28T11:05:54.922Z,1.30
2023-03-28T11:08:45.006Z,1.33
2023-03-28T11:11:29.667Z,1.70
2023-03-28T11:14:18.039Z,0.93
2023-03-28T11:16:54.931Z,1.20
2023-03-28T11:19:41.103Z,1.30
2023-03-28T11:22:30.807Z,1.50
2023-03-28T11:25:12.994Z,1.37
2023-03-28T11:27:54.022Z,1.80
2023-03-28T11:30:34.030Z,1.33
2023-03-28T11:33:31.309Z,1.90
2023-03-28T11:36:05.416Z,1.50
2023-03-28T11:38:39.485Z,1.73
2023-03-28T11:41:13.124Z,1.70
2023-03-28T11:44:08.693Z,1.33
2023-03-28T11:46:45.286Z,1.80
2023-03-28T11:49:19.597Z,1.40
2023-03-28T11:52:01.226Z,1.60
2023-03-28T11:54:27.570Z,1.47
2023-03-28T11:56:58.689Z,1.40
2023-03-28T11:59:57.523Z,1.20
2023-03-28T12:02:30.075Z,1.53
2023-03-28T12:05:26.472Z,1.30
2023-03-28T12:08:05.465Z,1.30
2023-03-28T12:10:36.667Z,1.40
2023-03-28T12:13:18.177Z,1.70
2023-03-28T12:15:59.837Z,1.30
2023-03-28T12:18:47.968Z,1.30
2023-03-28T12:21:38.749Z,1.60
2023-03-28T12:24:14.365Z,1.60
2023-03-28T12:27:15.857Z,2.07
2023-03-28T12:30:21.098Z,1.50
2023-03-28T12:33:14.749Z,1.30
2023-03-28T12:36:04.179Z,1.67
2023-03-28T12:38:36.771Z,1.40
2023-03-28T12:41:06.635Z,1.53
2023-03-28T12:43:44.864Z,1.50
2023-03-28T12:46:15.948Z,2.57
2023-03-28T12:48:54.003Z,1.40
2023-03-28T12:51:39.502Z,1.50
2023-03-28T12:54:15.230Z,1.70
2023-03-28T12:56:46.475Z,1.70
2023-03-28T12:59:41.216Z,1.77
2023-03-28T13:02:33.804Z,1.50
2023-03-28T13:05:15.468Z,1.87
2023-03-28T13:08:18.641Z,1.77
2023-03-28T13:11:00.370Z,1.43
2023-03-28T13:13:33.793Z,1.70
2023-03-28T13:16:00.186Z,1.70
2023-03-28T13:18:31.501Z,1.80
2023-03-28T13:21:00.082Z,1.40
2023-03-28T13:23:47.433Z,1.40
2023-03-28T13:26:14.021Z,1.90
2023-03-28T13:28:45.010Z,1.60
2023-03-28T13:31:24.981Z,1.50
2023-03-28T13:34:01.793Z,2.60
2023-03-28T13:36:32.381Z,1.80
2023-03-28T13:39:07.100Z,1.80
2023-03-28T13:41:52.631Z,1.40
2023-03-28T13:44:22.967Z,1.77
2023-03-28T13:46:50.669Z,1.60
2023-03-28T13:49:23.516Z,1.60
2023-03-28T13:51:58.399Z,1.73
2023-03-28T13:54:25.847Z,1.70
2023-03-28T13:56:53.391Z,1.60
2023-03-28T13:59:19.876Z,1.40
2023-03-28T14:01:50.294Z,1.40
2023-03-28T14:04:19.893Z,1.87
2023-03-28T14:06:46.763Z,1.43
2023-03-28T14:09:32.384Z,1.50
2023-03-28T14:12:08.410Z,1.70
2023-03-28T14:14:42.373Z,1.90
2023-03-28T14:17:14.645Z,1.87
2023-03-28T14:19:45.984Z,1.90
2023-03-28T14:22:21.090Z,1.60
2023-03-28T14:24:52.018Z,1.57
2023-03-28T14:27:36.703Z,1.60
2023-03-28T14:30:16.214Z,2.00
2023-03-28T14:32:57.435Z,1.70
2023-03-28T14:35:29.213Z,2.03
2023-03-28T14:38:01.669Z,1.53
2023-03-28T14:40:35.412Z,1.30
2023-03-28T14:43:07.301Z,1.60
2023-03-28T14:45:37.680Z,1.90
2023-03-28T14:48:08.684Z,2.37
2023-03-28T14:50:38.144Z,1.70
2023-03-28T14:53:07.991Z,1.53
2023-03-28T14:55:37.656Z,1.60
2023-03-28T14:58:06.020Z,1.63
2023-03-28T15:00:38.382Z,1.70
2023-03-28T15:03:10.455Z,1.90
2023-03-28T15:05:37.456Z,1.47
2023-03-28T15:08:05.521Z,1.50
2023-03-28T15:10:32.461Z,1.63
2023-03-28T15:13:20.799Z,2.00
2023-03-28T15:15:48.831Z,1.83
2023-03-28T15:18:19.808Z,1.90
2023-03-28T15:20:51.493Z,1.70
2023-03-28T15:23:33.500Z,1.60
2023-03-28T15:26:04.758Z,1.67
2023-03-28T15:28:31.956Z,1.90
2023-03-28T15:31:02.163Z,1.43
2023-03-28T15:33:32.552Z,2.00
2023-03-28T15:36:33.091Z,1.63
2023-03-28T15:39:02.184Z,1.80
2023-03-28T15:41:46.626Z,1.73
2023-03-28T15:44:34.305Z,1.40
2023-03-28T15:47:09.622Z,1.70
2023-03-28T15:49:37.785Z,1.77
2023-03-28T15:52:09.370Z,1.60
2023-03-28T15:54:40.894Z,1.67
2023-03-28T15:57:12.099Z,1.80
2023-03-28T15:59:48.254Z,1.47
2023-03-28T16:02:23.760Z,1.60
2023-03-28T16:05:14.924Z,2.03
2023-03-28T16:07:45.790Z,1.70
2023-03-28T16:10:20.684Z,1.77
2023-03-28T16:12:48.410Z,1.57
2023-03-28T16:15:15.588Z,1.60
2023-03-28T16:17:43.292Z,1.40
2023-03-28T16:20:29.934Z,1.70
2023-03-28T16:22:56.558Z,1.27
2023-03-28T16:25:22.904Z,1.77
2023-03-28T16:27:49.250Z,1.50
2023-03-28T16:30:24.949Z,1.67
2023-03-28T16:32:52.575Z,1.70
2023-03-28T16:35:19.128Z,1.87
2023-03-28T16:37:45.669Z,1.80
2023-03-28T16:40:12.558Z,1.40
2023-03-28T16:42:38.909Z,1.23
2023-03-28T16:45:06.396Z,1.67
2023-03-28T16:47:32.878Z,1.40
2023-03-28T16:49:59.195Z,1.37
2023-03-28T16:52:27.256Z,1.53
2023-03-28T16:54:54.929Z,1.53
2023-03-28T16:57:21.334Z,1.30
2023-03-28T16:59:47.939Z,1.73
2023-03-28T17:02:14.480Z,1.70
2023-03-28T17:04:41.244Z,1.60
2023-03-28T17:07:07.672Z,1.80
2023-03-28T17:09:34.677Z,1.60
2023-03-28T17:12:01.336Z,1.57
2023-03-28T17:14:27.877Z,1.87
2023-03-28T17:16:54.333Z,2.00
2023-03-28T17:19:23.953Z,1.90
2023-03-28T17:21:50.600Z,1.40
2023-03-28T17:24:16.963Z,1.60
2023-03-28T17:26:43.317Z,1.93
2023-03-28T17:29:11.815Z,1.70
2023-03-28T17:31:38.402Z,1.57
2023-03-28T17:34:04.919Z,2.00
2023-03-28T17:36:31.568Z,1.93
2023-03-28T17:38:58.806Z,1.97
2023-03-28T17:41:27.943Z,2.00
2023-03-28T17:43:56.406Z,1.80
2023-03-28T17:46:23.964Z,1.80
2023-03-28T17:48:50.679Z,1.50
2023-03-28T17:51:17.581Z,1.97
2023-03-28T17:53:46.832Z,1.77
2023-03-28T17:56:13.413Z,2.20
2023-03-28T17:58:39.837Z,2.03
2023-03-28T18:01:10.958Z,2.13
2023-03-28T18:03:39.139Z,1.87
2023-03-28T18:06:06.076Z,2.00
2023-03-28T18:08:32.435Z,1.90
2023-03-28T18:11:18.645Z,2.00
2023-03-28T18:13:45.266Z,1.90
2023-03-28T18:16:13.422Z,2.23
2023-03-28T18:18:40.559Z,2.00
2023-03-28T18:21:08.387Z,2.30
2023-03-28T18:23:35.886Z,1.80
2023-03-28T18:26:02.895Z,2.40
2023-03-28T18:28:29.438Z,1.93
2023-03-28T18:30:56.046Z,1.83
2023-03-28T18:33:22.515Z,2.00
2023-03-28T18:35:49.355Z,2.40
2023-03-28T18:38:16.021Z,1.80
2023-03-28T18:40:42.892Z,2.00
2023-03-28T18:43:09.754Z,2.97
2023-03-28T18:45:36.395Z,2.00
2023-03-28T18:48:03.832Z,1.60
2023-03-28T18:50:31.264Z,1.70
2023-03-28T18:52:57.913Z,1.73
2023-03-28T18:55:24.764Z,1.80
2023-03-28T18:57:52.903Z,1.47
2023-03-28T19:00:20.298Z,1.70
2023-03-28T19:02:48.759Z,2.37
2023-03-28T19:05:16.677Z,1.47
2023-03-28T19:07:44.308Z,1.93
2023-03-28T19:10:13.155Z,2.00
2023-03-28T19:12:41.218Z,2.13
2023-03-28T19:15:10.461Z,1.90
2023-03-28T19:17:38.751Z,1.93
2023-03-28T19:20:07.760Z,1.90
2023-03-28T19:22:35.212Z,1.73
2023-03-28T19:25:01.829Z,1.80
2023-03-28T19:27:28.219Z,1.30
2023-03-28T19:29:54.598Z,1.20
2023-03-28T19:32:21.320Z,1.30
2023-03-28T19:34:47.882Z,1.10
2023-03-28T19:37:14.304Z,1.13
2023-03-28T19:39:40.850Z,1.27
2023-03-28T19:42:07.400Z,1.30
2023-03-28T19:44:33.800Z,1.40
2023-03-28T19:47:00.501Z,1.30
2023-03-28T19:49:26.906Z,1.60
2023-03-28T19:51:53.372Z,1.53
2023-03-28T19:54:19.876Z,1.50
2023-03-28T19:56:46.809Z,1.70
2023-03-28T19:59:13.296Z,1.57
2023-03-28T20:01:39.805Z,1.60
2023-03-28T20:04:06.334Z,1.80
2023-03-28T20:06:32.694Z,1.60
2023-03-28T20:08:59.112Z,1.90
2023-03-28T20:11:26.745Z,1.60
2023-03-28T20:13:53.154Z,1.98
2023-03-28T20:16:19.617Z,1.90
2023-03-28T20:18:46.403Z,1.83
2023-03-28T20:21:13.350Z,2.27
2023-03-28T20:23:40.184Z,2.43
2023-03-28T20:26:21.984Z,2.30
2023-03-28T20:28:52.594Z,2.00
2023-03-28T20:31:19.341Z,1.60
2023-03-28T20:33:46.076Z,2.00
2023-03-28T20:36:12.642Z,2.00
2023-03-28T20:38:39.269Z,3.40
2023-03-28T20:41:11.035Z,2.50
2023-03-28T20:43:40.478Z,3.20
2023-03-28T20:46:07.651Z,2.30
2023-03-28T20:48:37.102Z,3.63
2023-03-28T20:51:05.827Z,2.60
2023-03-28T20:53:33.287Z,2.30
2023-03-28T20:56:01.772Z,2.53
2023-03-28T20:58:29.992Z,2.80
2023-03-28T21:00:57.712Z,2.73
2023-03-28T21:03:39.117Z,2.80
2023-03-28T21:06:06.799Z,2.43
2023-03-28T21:08:36.170Z,2.60
2023-03-28T21:11:03.418Z,2.83
2023-03-28T21:13:30.364Z,2.80
2023-03-28T21:15:57.404Z,2.63
2023-03-28T21:18:23.999Z,2.93
2023-03-28T21:20:50.469Z,2.77
2023-03-28T21:23:16.858Z,2.90
2023-03-28T21:25:45.177Z,2.60
2023-03-28T21:28:12.528Z,2.60
2023-03-28T21:30:40.196Z,2.23
2023-03-28T21:33:07.052Z,2.50
2023-03-28T21:35:34.651Z,2.83
2023-03-28T21:38:01.508Z,2.40
2023-03-28T21:40:27.928Z,2.50
2023-03-28T21:42:54.296Z,2.30
2023-03-28T21:45:21.029Z,2.33
2023-03-28T21:47:47.554Z,2.27
2023-03-28T21:50:15.120Z,2.63
2023-03-28T21:52:41.769Z,2.50
2023-03-28T21:55:09.301Z,2.37
2023-03-28T21:57:36.682Z,2.33
2023-03-28T22:00:14.941Z,2.43
2023-03-28T22:02:42.345Z,2.70
2023-03-28T22:05:18.750Z,2.70
2023-03-28T22:07:53.363Z,2.40
2023-03-28T22:10:20.005Z,2.70
2023-03-28T22:12:46.465Z,2.70
2023-03-28T22:15:14.095Z,2.50
2023-03-28T22:17:41.962Z,2.53
2023-03-28T22:20:13.036Z,2.77
2023-03-28T22:22:42.618Z,1.90
2023-03-28T22:25:10.778Z,2.60
2023-03-28T22:27:38.535Z,2.40
2023-03-28T22:30:09.060Z,2.37
2023-03-28T22:32:38.175Z,2.50
2023-03-28T22:35:05.909Z,2.57
2023-03-28T22:37:33.136Z,2.50
2023-03-28T22:39:59.676Z,2.60
2023-03-28T22:42:26.456Z,2.20
2023-03-28T22:44:53.055Z,2.53
2023-03-28T22:47:19.413Z,2.80
2023-03-28T22:49:45.818Z,2.23
2023-03-28T22:52:13.663Z,2.63
2023-03-28T22:54:42.463Z,2.10
2023-03-28T22:57:09.121Z,2.33
2023-03-28T22:59:36.243Z,2.97
2023-03-28T23:02:03.026Z,2.30
2023-03-28T23:04:29.683Z,2.50
2023-03-28T23:06:56.370Z,2.73
2023-03-28T23:09:24.753Z,2.17
2023-03-28T23:11:52.293Z,2.10
2023-03-28T23:14:18.782Z,2.57
2023-03-28T23:16:45.423Z,2.30
2023-03-28T23:19:11.916Z,2.27
2023-03-28T23:21:38.254Z,2.30
2023-03-28T23:24:05.529Z,2.50
2023-03-28T23:26:31.896Z,2.50
2023-03-28T23:28:58.328Z,2.23
2023-03-28T23:31:24.734Z,2.57
2023-03-28T23:33:51.098Z,2.60
2023-03-28T23:36:20.853Z,2.00
2023-03-28T23:38:48.718Z,2.23
2023-03-28T23:41:15.174Z,2.40
2023-03-28T23:43:41.726Z,2.70
2023-03-28T23:46:08.941Z,2.37
2023-03-28T23:48:36.167Z,2.60
2023-03-28T23:51:03.331Z,2.60
2023-03-28T23:53:30.333Z,2.20
2023-03-28T23:55:56.685Z,2.30
2023-03-28T23:58:23.018Z,2.47
